createdAt,value
2023-03-26T00:02:00.473Z,16.60
2023-03-26T00:04:28.104Z,13.90
2023-03-26T00:06:55.911Z,16.25
2023-03-26T00:09:23.100Z,20.15
2023-03-26T00:11:50.504Z,20.83
2023-03-26T00:14:18.207Z,17.88
2023-03-26T00:16:47.276Z,17.38
2023-03-26T00:19:15.344Z,23.50
2023-03-26T00:21:42.691Z,15.10
2023-03-26T00:24:16.197Z,15.25
2023-03-26T00:26:44.878Z,18.38
2023-03-26T00:29:13.943Z,15.52
2023-03-26T00:31:48.125Z,19.75
2023-03-26T00:34:18.624Z,23.17
2023-03-26T00:36:47.515Z,21.60
2023-03-26T00:39:15.268Z,21.05
2023-03-26T00:41:43.462Z,20.10
2023-03-26T00:44:11.732Z,19.95
2023-03-26T00:46:39.004Z,17.38
2023-03-26T00:49:11.235Z,25.02
2023-03-26T00:51:39.382Z,29.02
2023-03-26T00:54:08.517Z,18.48
2023-03-26T00:56:36.049Z,25.70
2023-03-26T00:59:03.453Z,26.52
2023-03-26T01:01:32.318Z,25.25
2023-03-26T01:04:30.612Z,26.40
2023-03-26T01:07:28.776Z,21.73
2023-03-26T01:10:09.131Z,19.17
2023-03-26T01:12:40.664Z,24.47
2023-03-26T01:15:13.804Z,19.10
2023-03-26T01:17:45.271Z,18.33
2023-03-26T01:20:30.556Z,31.48
2023-03-26T01:23:06.402Z,28.65
2023-03-26T01:25:43.848Z,22.08
2023-03-26T01:28:12.512Z,23.85
2023-03-26T01:30:52.051Z,29.17
2023-03-26T01:33:44.273Z,27.63
2023-03-26T01:36:37.715Z,30.90
2023-03-26T01:39:19.422Z,33.80
2023-03-26T01:42:02.851Z,29.15
2023-03-26T01:44:56.912Z,27.85
2023-03-26T01:47:28.372Z,19.85
2023-03-26T01:49:55.434Z,23.05
2023-03-26T01:52:26.277Z,25.15
2023-03-26T01:55:00.006Z,20.48
2023-03-26T01:57:36.971Z,28.33
2023-03-26T02:00:33.782Z,21.83
2023-03-26T02:03:25.102Z,21.55
2023-03-26T02:06:16.466Z,18.77
2023-03-26T02:08:59.255Z,23.27
2023-03-26T02:11:35.483Z,19.48
2023-03-26T02:14:06.149Z,23.80
2023-03-26T02:16:34.468Z,25.63
2023-03-26T02:19:02.584Z,23.00
2023-03-26T02:21:34.308Z,21.77
2023-03-26T02:24:05.012Z,20.42
2023-03-26T02:26:39.728Z,21.92
2023-03-26T02:29:20.304Z,23.75
2023-03-26T02:31:50.391Z,28.95
2023-03-26T02:34:17.525Z,22.35
2023-03-26T02:36:50.995Z,27.55
2023-03-26T02:39:18.366Z,26.42
2023-03-26T02:41:53.048Z,26.00
2023-03-26T02:44:21.120Z,25.17
2023-03-26T02:47:00.576Z,20.65
2023-03-26T02:50:01.947Z,26.55
2023-03-26T02:52:50.297Z,22.35
2023-03-26T02:55:18.215Z,21.40
2023-03-26T02:57:48.230Z,21.70
2023-03-26T03:00:22.214Z,18.17
2023-03-26T03:02:58.321Z,28.42
2023-03-26T03:05:28.522Z,27.77
2023-03-26T03:08:08.196Z,24.23
2023-03-26T03:10:37.856Z,20.88
2023-03-26T03:13:11.449Z,19.95
2023-03-26T03:15:39.120Z,29.10
2023-03-26T03:18:06.796Z,30.65
2023-03-26T03:20:35.330Z,24.42
2023-03-26T03:23:02.738Z,21.40
2023-03-26T03:25:30.786Z,24.83
2023-03-26T03:27:58.951Z,20.90
2023-03-26T03:30:26.339Z,20.02
2023-03-26T03:33:13.118Z,22.17
2023-03-26T03:35:41.563Z,28.15
2023-03-26T03:38:10.704Z,19.77
2023-03-26T03:40:46.717Z,14.07
2023-03-26T03:43:14.702Z,23.00
2023-03-26T03:45:53.628Z,21.73
2023-03-26T03:48:31.784Z,24.38
2023-03-26T03:50:59.905Z,19.08
2023-03-26T03:53:31.524Z,19.48
2023-03-26T03:56:02.204Z,14.23
2023-03-26T03:58:48.681Z,18.42
2023-03-26T04:01:25.002Z,25.45
2023-03-26T04:03:59.408Z,18.27
2023-03-26T04:06:39.415Z,31.02
2023-03-26T04:09:10.151Z,19.63
2023-03-26T04:11:38.620Z,17.05
2023-03-26T04:14:28.184Z,18.27
2023-03-26T04:16:59.299Z,22.38
2023-03-26T04:19:28.400Z,16.77
2023-03-26T04:21:55.792Z,22.92
2023-03-26T04:24:24.517Z,17.90
2023-03-26T04:27:28.036Z,20.85
2023-03-26T04:30:05.633Z,20.27
2023-03-26T04:32:38.793Z,26.08
2023-03-26T04:35:08.144Z,19.73
2023-03-26T04:37:41.335Z,15.85
2023-03-26T04:40:22.382Z,16.35
2023-03-26T04:43:02.265Z,20.33
2023-03-26T04:45:55.845Z,25.63
2023-03-26T04:48:25.738Z,20.70
2023-03-26T04:50:53.129Z,21.58
2023-03-26T04:53:22.288Z,16.50
2023-03-26T04:57:02.262Z,16.00
2023-03-26T04:59:53.944Z,17.60
2023-03-26T05:02:41.778Z,19.30
2023-03-26T05:05:14.966Z,15.80
2023-03-26T05:08:06.389Z,20.38
2023-03-26T05:10:53.544Z,16.02
2023-03-26T05:23:14.567Z,20.90
2023-03-26T05:25:58.524Z,15.05
2023-03-26T05:28:27.537Z,11.88
2023-03-26T05:30:59.159Z,15.70
2023-03-26T05:33:29.572Z,16.77
2023-03-26T05:36:15.620Z,21.13
2023-03-26T05:38:50.342Z,14.55
2023-03-26T05:41:50.186Z,14.95
2023-03-26T05:44:19.749Z,13.85
2023-03-26T05:46:50.067Z,14.00
2023-03-26T05:49:22.857Z,22.83
2023-03-26T05:51:50.601Z,19.67
2023-03-26T05:54:34.656Z,17.05
2023-03-26T05:57:24.007Z,15.38
2023-03-26T06:00:11.899Z,19.40
2023-03-26T06:02:47.149Z,12.98
2023-03-26T06:05:38.148Z,12.80
2023-03-26T06:08:18.369Z,24.92
2023-03-26T06:10:59.832Z,15.05
2023-03-26T06:13:35.076Z,18.30
2023-03-26T06:16:04.036Z,18.15
2023-03-26T06:18:39.157Z,19.77
2023-03-26T06:21:32.899Z,15.00
2023-03-26T06:24:10.050Z,14.07
2023-03-26T06:27:14.402Z,10.67
2023-03-26T06:30:09.339Z,13.60
2023-03-26T06:33:02.394Z,17.35
2023-03-26T06:35:50.961Z,14.20
2023-03-26T06:38:33.940Z,15.18
2023-03-26T06:41:07.803Z,16.67
2023-03-26T06:44:00.097Z,16.95
2023-03-26T06:46:44.990Z,10.25
2023-03-26T06:49:59.407Z,11.13
2023-03-26T06:52:42.785Z,11.23
2023-03-26T06:55:29.396Z,14.48
2023-03-26T06:58:25.287Z,10.15
2023-03-26T07:01:11.745Z,11.00
2023-03-26T07:04:00.094Z,12.32
2023-03-26T07:06:46.209Z,7.35
2023-03-26T07:09:33.475Z,9.50
2023-03-26T07:12:02.445Z,8.40
2023-03-26T07:15:04.281Z,8.27
2023-03-26T07:17:49.698Z,16.08
2023-03-26T07:20:26.025Z,10.18
2023-03-26T07:22:54.717Z,10.60
2023-03-26T07:25:41.172Z,12.68
2023-03-26T07:29:04.486Z,10.32
2023-03-26T07:31:50.889Z,12.32
2023-03-26T07:35:17.449Z,12.18
2023-03-26T07:38:32.994Z,6.40
2023-03-26T07:41:38.546Z,9.83
2023-03-26T07:44:45.036Z,16.60
2023-03-26T07:47:34.572Z,18.63
2023-03-26T07:50:21.803Z,11.90
2023-03-26T07:53:04.146Z,6.93
2023-03-26T07:56:11.047Z,12.82
2023-03-26T07:59:15.370Z,11.40
2023-03-26T08:02:42.020Z,9.25
2023-03-26T08:05:31.685Z,9.82
2023-03-26T08:08:32.339Z,14.80
2023-03-26T08:11:40.937Z,14.25
2023-03-26T08:17:31.137Z,9.18
2023-03-26T08:20:12.376Z,12.50
2023-03-26T08:22:43.288Z,9.25
2023-03-26T08:25:40.302Z,10.02
2023-03-26T08:28:30.175Z,10.10
2023-03-26T08:30:57.761Z,13.35
2023-03-26T08:33:28.034Z,8.63
2023-03-26T08:35:55.195Z,9.60
2023-03-26T08:38:41.945Z,11.77
2023-03-26T08:41:25.534Z,9.60
2023-03-26T08:44:17.243Z,14.25
2023-03-26T08:47:25.021Z,11.93
2023-03-26T08:50:00.910Z,14.25
2023-03-26T08:53:01.787Z,8.80
2023-03-26T08:55:54.846Z,12.48
2023-03-26T08:59:15.338Z,13.43
2023-03-26T09:02:09.921Z,11.88
2023-03-26T09:05:00.859Z,10.57
2023-03-26T09:07:56.615Z,9.75
2023-03-26T09:13:02.377Z,11.40
2023-03-26T09:16:00.488Z,12.95
2023-03-26T09:18:36.937Z,8.77
2023-03-26T09:21:46.047Z,7.38
2023-03-26T09:24:28.128Z,11.10
2023-03-26T09:28:10.108Z,8.55
2023-03-26T09:41:34.866Z,9.00
2023-03-26T09:44:46.916Z,9.95
2023-03-26T09:48:05.721Z,9.23
2023-03-26T09:50:58.836Z,8.43
2023-03-26T09:53:52.352Z,10.07
2023-03-26T09:56:43.230Z,9.93
2023-03-26T09:59:30.839Z,10.25
2023-03-26T10:02:45.295Z,8.38
2023-03-26T10:05:34.228Z,9.18
2023-03-26T10:08:20.372Z,10.88
2023-03-26T10:11:18.020Z,11.90
2023-03-26T10:14:17.781Z,10.25
2023-03-26T10:17:19.642Z,9.30
2023-03-26T10:20:29.499Z,11.27
2023-03-26T10:23:39.372Z,8.90
2023-03-26T10:27:09.074Z,5.38
2023-03-26T10:29:47.886Z,9.13
2023-03-26T10:32:29.114Z,4.68
2023-03-26T10:35:37.071Z,3.75
2023-03-26T10:38:57.117Z,4.07
2023-03-26T10:41:55.327Z,3.58
2023-03-26T10:44:57.386Z,3.63
2023-03-26T10:47:50.240Z,3.08
2023-03-26T10:50:56.913Z,3.55
2023-03-26T10:53:31.651Z,6.15
2023-03-26T10:56:22.839Z,2.60
2023-03-26T10:58:50.543Z,3.53
2023-03-26T11:01:47.216Z,3.55
2023-03-26T11:04:42.069Z,2.63
2023-03-26T11:07:35.762Z,5.78
2023-03-26T11:10:50.312Z,3.55
2023-03-26T11:13:46.094Z,3.47
2023-03-26T11:19:04.464Z,1.10
2023-03-26T11:22:08.946Z,2.60
2023-03-26T11:24:50.783Z,0.85
2023-03-26T11:27:32.099Z,0.90
2023-03-26T11:30:32.628Z,2.15
2023-03-26T11:33:09.852Z,0.80
2023-03-26T11:35:42.651Z,0.93
2023-03-26T11:38:48.140Z,5.05
2023-03-26T11:41:27.138Z,1.90
2023-03-26T11:44:06.389Z,1.30
2023-03-26T11:46:40.020Z,3.50
2023-03-26T11:49:13.085Z,1.20
2023-03-26T11:51:43.561Z,0.45
2023-03-26T11:54:13.054Z,1.95
2023-03-26T11:57:05.829Z,2.65
2023-03-26T11:59:57.522Z,3.50
2023-03-26T12:02:37.731Z,1.55
2023-03-26T12:05:22.231Z,1.45
2023-03-26T12:08:03.466Z,2.47
2023-03-26T12:10:42.696Z,1.08
2023-03-26T12:13:33.505Z,1.17
2023-03-26T12:16:17.805Z,1.75
2023-03-26T12:18:57.094Z,0.75
2023-03-26T12:21:24.128Z,4.07
2023-03-26T12:24:05.717Z,2.45
2023-03-26T12:26:45.485Z,1.50
2023-03-26T12:29:16.812Z,0.75
2023-03-26T12:32:07.569Z,0.57
2023-03-26T12:34:39.603Z,0.70
2023-03-26T12:37:38.791Z,1.05
2023-03-26T12:40:36.467Z,0.60
2023-03-26T12:44:53.578Z,2.38
2023-03-26T12:47:58.180Z,1.67
2023-03-26T12:49:14.167Z,3.45
2023-03-26T12:52:00.199Z,4.25
2023-03-26T12:54:54.379Z,1.17
2023-03-26T12:58:26.489Z,2.05
2023-03-26T13:01:56.861Z,1.55
2023-03-26T13:05:06.439Z,2.73
2023-03-26T13:08:24.437Z,2.30
2023-03-26T13:11:19.326Z,1.25
2023-03-26T13:14:12.537Z,0.90
2023-03-26T13:17:26.156Z,1.65
2023-03-26T13:20:24.016Z,2.03
2023-03-26T13:22:59.162Z,1.83
2023-03-26T13:25:45.193Z,1.30
2023-03-26T13:31:53.473Z,1.83
2023-03-26T13:35:01.971Z,2.00
2023-03-26T13:37:36.472Z,1.92
2023-03-26T13:41:02.148Z,3.15
2023-03-26T13:43:57.531Z,3.92
2023-03-26T13:46:50.755Z,3.15
2023-03-26T13:49:37.219Z,2.33
2023-03-26T13:52:38.937Z,3.08
2023-03-26T13:55:47.472Z,2.38
2023-03-26T13:58:25.567Z,2.92
2023-03-26T14:01:16.669Z,3.30
2023-03-26T14:03:50.833Z,2.53
2023-03-26T14:06:57.677Z,1.83
2023-03-26T14:09:44.291Z,2.72
2023-03-26T14:12:41.094Z,4.35
2023-03-26T14:15:28.214Z,2.35
2023-03-26T14:18:30.684Z,2.70
2023-03-26T14:21:09.637Z,1.65
2023-03-26T14:24:02.746Z,2.90
2023-03-26T14:26:37.399Z,1.67
2023-03-26T14:29:23.593Z,4.65
2023-03-26T14:32:24.200Z,1.10
2023-03-26T14:35:49.160Z,2.15
2023-03-26T14:39:07.569Z,1.80
2023-03-26T14:42:32.631Z,1.92
2023-03-26T14:45:30.881Z,1.73
2023-03-26T14:48:16.248Z,2.17
2023-03-26T14:53:35.338Z,2.80
2023-03-26T14:56:36.793Z,3.92
2023-03-26T14:59:22.490Z,3.80
2023-03-26T15:06:26.459Z,2.17
2023-03-26T15:09:18.685Z,2.95
2023-03-26T15:12:14.388Z,3.58
2023-03-26T15:15:13.669Z,4.95
2023-03-26T15:18:14.213Z,3.33
2023-03-26T15:21:31.011Z,5.05
2023-03-26T15:24:35.426Z,2.95
2023-03-26T15:27:31.458Z,3.38
2023-03-26T15:30:21.387Z,2.78
2023-03-26T15:33:35.794Z,4.05
2023-03-26T15:36:23.973Z,4.70
2023-03-26T15:39:59.336Z,3.22
2023-03-26T15:42:53.639Z,4.93
2023-03-26T15:45:37.819Z,5.32
2023-03-26T15:48:13.718Z,5.43
2023-03-26T15:51:30.208Z,9.70
2023-03-26T15:54:16.496Z,10.18
2023-03-26T15:57:28.450Z,13.75
2023-03-26T16:00:23.318Z,16.02
2023-03-26T16:03:52.292Z,10.10
2023-03-26T16:06:51.474Z,11.95
2023-03-26T16:10:07.098Z,12.82
2023-03-26T16:12:59.103Z,13.38
2023-03-26T16:16:32.264Z,13.38
2023-03-26T16:19:20.575Z,10.98
2023-03-26T16:21:56.183Z,9.18
2023-03-26T16:24:37.861Z,13.13
2023-03-26T16:27:12.980Z,16.50
2023-03-26T16:30:15.331Z,12.68
2023-03-26T16:32:56.384Z,17.60
2023-03-26T16:36:02.000Z,9.93
2023-03-26T16:39:07.566Z,9.10
2023-03-26T16:41:50.070Z,13.00
2023-03-26T16:44:36.547Z,11.88
2023-03-26T16:48:03.189Z,12.27
2023-03-26T16:50:49.165Z,12.07
2023-03-26T16:53:49.702Z,12.15
2023-03-26T16:56:41.977Z,17.75
2023-03-26T17:00:04.519Z,8.82
2023-03-26T17:03:25.654Z,9.63
2023-03-26T17:05:58.592Z,12.15
2023-03-26T17:08:46.856Z,10.10
2023-03-26T17:11:47.046Z,12.82
2023-03-26T17:15:15.844Z,9.68
2023-03-26T17:18:40.985Z,13.25
2023-03-26T17:21:46.038Z,12.85
2023-03-26T17:25:34.253Z,9.52
2023-03-26T17:28:50.505Z,7.40
2023-03-26T17:32:16.488Z,9.90
2023-03-26T17:35:06.910Z,9.02
2023-03-26T17:38:01.705Z,11.32
2023-03-26T17:43:46.162Z,10.45
2023-03-26T17:46:48.419Z,7.45
2023-03-26T17:50:00.776Z,8.43
2023-03-26T17:53:49.326Z,7.55
2023-03-26T18:02:18.505Z,6.15
2023-03-26T18:04:56.556Z,8.10
2023-03-26T18:12:57.813Z,13.23
2023-03-26T18:17:08.938Z,10.43
2023-03-26T18:21:03.638Z,12.98
2023-03-26T18:29:12.903Z,12.83
2023-03-26T18:36:18.590Z,13.60
2023-03-26T18:39:00.615Z,10.73
2023-03-26T18:42:22.627Z,10.13
2023-03-26T18:44:52.112Z,8.75
2023-03-26T18:52:17.432Z,11.02
2023-03-26T19:36:34.454Z,6.68
2023-03-26T19:45:01.792Z,6.65
2023-03-26T19:48:45.483Z,10.25
2023-03-26T19:52:20.547Z,12.02
2023-03-26T19:55:36.803Z,9.63
2023-03-26T19:58:06.037Z,12.15
2023-03-26T20:01:48.147Z,11.05
2023-03-26T20:16:04.964Z,9.55
2023-03-26T20:27:30.005Z,6.95
2023-03-26T20:33:12.772Z,9.18
2023-03-26T20:35:47.700Z,10.18
2023-03-26T20:38:17.105Z,8.23
2023-03-26T20:45:12.431Z,10.85
2023-03-26T20:47:44.288Z,9.23
2023-03-26T20:51:05.733Z,15.40
2023-03-26T20:53:33.139Z,7.70
2023-03-26T20:56:17.085Z,8.75
2023-03-26T20:59:00.493Z,10.82
2023-03-26T21:01:41.219Z,12.77
2023-03-26T21:04:11.569Z,10.73
2023-03-26T21:06:43.642Z,5.13
2023-03-26T21:09:17.952Z,6.05
2023-03-26T21:11:57.110Z,7.55
2023-03-26T21:14:41.329Z,6.32
2023-03-26T21:17:23.174Z,8.70
2023-03-26T21:19:56.300Z,8.65
2023-03-26T21:22:39.587Z,16.88
2023-03-26T21:25:33.233Z,8.63
2023-03-26T21:28:11.987Z,13.63
2023-03-26T21:30:46.977Z,9.60
2023-03-26T21:33:13.950Z,10.45
2023-03-26T21:35:42.136Z,12.35
2023-03-26T21:38:11.314Z,7.07
2023-03-26T21:40:40.580Z,10.10
2023-03-26T21:43:12.532Z,10.75
2023-03-26T21:45:40.030Z,8.32
2023-03-26T21:48:07.793Z,8.00
2023-03-26T21:50:35.723Z,14.70
2023-03-26T21:53:03.302Z,7.20
2023-03-26T21:55:49.943Z,11.25
2023-03-26T21:59:01.072Z,9.98
2023-03-26T22:01:55.693Z,11.15
2023-03-26T22:04:41.775Z,4.80
2023-03-26T22:07:35.860Z,7.85
2023-03-26T22:10:02.998Z,7.10
2023-03-26T22:12:29.938Z,10.15
2023-03-26T22:14:57.400Z,12.80
2023-03-26T22:17:24.345Z,7.63
2023-03-26T22:19:51.361Z,10.35
2023-03-26T22:22:18.349Z,8.63
2023-03-26T22:24:45.233Z,9.70
2023-03-26T22:27:13.132Z,11.90
2023-03-26T22:29:40.332Z,12.32
2023-03-26T22:32:07.970Z,17.77
2023-03-26T22:34:35.191Z,8.70
2023-03-26T22:37:02.242Z,9.68
2023-03-26T22:39:29.276Z,9.45
2023-03-26T22:41:56.589Z,9.43
2023-03-26T22:44:23.632Z,9.98
2023-03-26T22:46:51.394Z,10.05
2023-03-26T22:49:19.135Z,6.95
2023-03-26T22:51:46.722Z,11.35
2023-03-26T22:54:14.568Z,8.05
2023-03-26T22:56:41.667Z,7.32
2023-03-26T22:59:08.634Z,11.65
2023-03-26T23:01:36.300Z,8.40
2023-03-26T23:04:03.711Z,9.93
2023-03-26T23:06:31.545Z,20.50
2023-03-26T23:08:59.554Z,16.25
2023-03-26T23:11:29.484Z,8.38
2023-03-26T23:13:56.729Z,9.18
2023-03-26T23:16:23.846Z,6.55
2023-03-26T23:18:51.039Z,5.90
2023-03-26T23:21:21.572Z,11.95
2023-03-26T23:23:52.076Z,6.45
2023-03-26T23:26:19.204Z,14.93
2023-03-26T23:28:46.600Z,11.95
2023-03-26T23:31:14.131Z,9.77
2023-03-26T23:33:45.944Z,4.90
2023-03-26T23:36:18.352Z,7.63
2023-03-26T23:38:51.021Z,6.93
2023-03-26T23:41:21.947Z,5.80
2023-03-26T23:43:56.580Z,12.98
2023-03-26T23:46:34.625Z,9.98
2023-03-26T23:49:03.376Z,6.22
2023-03-26T23:51:31.209Z,7.88
2023-03-26T23:53:58.450Z,5.20
2023-03-26T23:56:27.492Z,6.60
2023-03-26T23:58:55.152Z,7.95
